sensor_id;sensor_type;location;lat;lon;timestamp;P1;durP1;ratioP1;P2;durP2;ratioP2
84048;SDS011;74136;51.684;7.862;2024-01-27T00:02:13;32.28;;;5.03;;
84048;SDS011;74136;51.684;7.862;2024-01-27T00:04:39;24.90;;;3.63;;
84048;SDS011;74136;51.684;7.862;2024-01-27T00:07:05;19.38;;;4.03;;
84048;SDS011;74136;51.684;7.862;2024-01-27T00:09:32;16.50;;;3.80;;
84048;SDS011;74136;51.684;7.862;2024-01-27T00:11:58;26.75;;;4.22;;
84048;SDS011;74136;51.684;7.862;2024-01-27T00:14:24;27.02;;;4.15;;
84048;SDS011;74136;51.684;7.862;2024-01-27T00:16:50;21.50;;;3.85;;
84048;SDS011;74136;51.684;7.862;2024-01-27T00:19:16;24.67;;;4.15;;
84048;SDS011;74136;51.684;7.862;2024-01-27T00:21:43;24.50;;;4.80;;
84048;SDS011;74136;51.684;7.862;2024-01-27T00:24:09;23.02;;;4.50;;
84048;SDS011;74136;51.684;7.862;2024-01-27T00:26:35;23.40;;;5.75;;
84048;SDS011;74136;51.684;7.862;2024-01-27T00:29:01;48.30;;;6.45;;
84048;SDS011;74136;51.684;7.862;2024-01-27T00:31:27;20.85;;;4.88;;
84048;SDS011;74136;51.684;7.862;2024-01-27T00:33:54;23.65;;;4.95;;
84048;SDS011;74136;51.684;7.862;2024-01-27T00:36:20;24.58;;;5.22;;
84048;SDS011;74136;51.684;7.862;2024-01-27T00:38:46;39.17;;;6.50;;
84048;SDS011;74136;51.684;7.862;2024-01-27T00:41:16;26.02;;;5.30;;
84048;SDS011;74136;51.684;7.862;2024-01-27T00:43:43;30.92;;;6.60;;
84048;SDS011;74136;51.684;7.862;2024-01-27T00:46:09;23.67;;;6.03;;
84048;SDS011;74136;51.684;7.862;2024-01-27T00:48:35;25.13;;;7.03;;
84048;SDS011;74136;51.684;7.862;2024-01-27T00:51:02;17.45;;;5.35;;
84048;SDS011;74136;51.684;7.862;2024-01-27T00:53:28;32.97;;;6.68;;
84048;SDS011;74136;51.684;7.862;2024-01-27T00:55:54;22.17;;;5.82;;
84048;SDS011;74136;51.684;7.862;2024-01-27T00:58:20;31.45;;;7.20;;
84048;SDS011;74136;51.684;7.862;2024-01-27T01:00:47;25.40;;;5.90;;
84048;SDS011;74136;51.684;7.862;2024-01-27T01:03:13;25.95;;;5.65;;
84048;SDS011;74136;51.684;7.862;2024-01-27T01:05:39;27.63;;;6.25;;
84048;SDS011;74136;51.684;7.862;2024-01-27T01:08:05;27.30;;;6.88;;
84048;SDS011;74136;51.684;7.862;2024-01-27T01:10:32;27.40;;;5.93;;
84048;SDS011;74136;51.684;7.862;2024-01-27T01:12:59;28.05;;;6.68;;
84048;SDS011;74136;51.684;7.862;2024-01-27T01:15:25;30.35;;;7.65;;
84048;SDS011;74136;51.684;7.862;2024-01-27T01:17:51;27.23;;;6.30;;
84048;SDS011;74136;51.684;7.862;2024-01-27T01:20:17;25.58;;;7.88;;
84048;SDS011;74136;51.684;7.862;2024-01-27T01:22:43;31.15;;;7.57;;
84048;SDS011;74136;51.684;7.862;2024-01-27T01:25:10;28.45;;;6.50;;
84048;SDS011;74136;51.684;7.862;2024-01-27T01:27:36;27.73;;;7.40;;
84048;SDS011;74136;51.684;7.862;2024-01-27T01:30:02;27.13;;;7.28;;
84048;SDS011;74136;51.684;7.862;2024-01-27T01:32:29;32.13;;;7.28;;
84048;SDS011;74136;51.684;7.862;2024-01-27T01:34:55;34.33;;;7.53;;
84048;SDS011;74136;51.684;7.862;2024-01-27T01:37:21;22.58;;;8.02;;
84048;SDS011;74136;51.684;7.862;2024-01-27T01:39:47;28.70;;;7.43;;
84048;SDS011;74136;51.684;7.862;2024-01-27T01:42:13;31.55;;;8.05;;
84048;SDS011;74136;51.684;7.862;2024-01-27T01:44:39;31.98;;;7.70;;
84048;SDS011;74136;51.684;7.862;2024-01-27T01:47:06;31.98;;;7.50;;
84048;SDS011;74136;51.684;7.862;2024-01-27T01:49:34;22.48;;;7.18;;
84048;SDS011;74136;51.684;7.862;2024-01-27T01:52:01;29.70;;;7.70;;
84048;SDS011;74136;51.684;7.862;2024-01-27T01:54:28;28.08;;;7.63;;
84048;SDS011;74136;51.684;7.862;2024-01-27T01:56:55;29.23;;;7.88;;
84048;SDS011;74136;51.684;7.862;2024-01-27T01:59:21;29.30;;;6.75;;
84048;SDS011;74136;51.684;7.862;2024-01-27T02:01:47;27.70;;;6.88;;
84048;SDS011;74136;51.684;7.862;2024-01-27T02:04:13;26.58;;;7.68;;
84048;SDS011;74136;51.684;7.862;2024-01-27T02:06:40;28.10;;;7.55;;
84048;SDS011;74136;51.684;7.862;2024-01-27T02:09:06;27.55;;;7.88;;
84048;SDS011;74136;51.684;7.862;2024-01-27T02:11:32;34.47;;;9.55;;
84048;SDS011;74136;51.684;7.862;2024-01-27T02:13:58;28.80;;;8.00;;
84048;SDS011;74136;51.684;7.862;2024-01-27T02:16:24;32.95;;;9.07;;
84048;SDS011;74136;51.684;7.862;2024-01-27T02:18:51;31.55;;;7.65;;
84048;SDS011;74136;51.684;7.862;2024-01-27T02:21:17;29.55;;;8.93;;
84048;SDS011;74136;51.684;7.862;2024-01-27T02:23:43;38.30;;;9.07;;
84048;SDS011;74136;51.684;7.862;2024-01-27T02:26:09;42.53;;;10.05;;
84048;SDS011;74136;51.684;7.862;2024-01-27T02:28:35;30.50;;;8.75;;
84048;SDS011;74136;51.684;7.862;2024-01-27T02:31:02;36.80;;;9.27;;
84048;SDS011;74136;51.684;7.862;2024-01-27T02:33:29;29.92;;;8.18;;
84048;SDS011;74136;51.684;7.862;2024-01-27T02:35:55;32.53;;;8.80;;
84048;SDS011;74136;51.684;7.862;2024-01-27T02:38:21;32.20;;;8.95;;
84048;SDS011;74136;51.684;7.862;2024-01-27T02:40:48;30.13;;;7.75;;
84048;SDS011;74136;51.684;7.862;2024-01-27T02:43:14;36.90;;;9.60;;
84048;SDS011;74136;51.684;7.862;2024-01-27T02:45:40;36.22;;;10.52;;
84048;SDS011;74136;51.684;7.862;2024-01-27T02:48:06;23.70;;;8.90;;
84048;SDS011;74136;51.684;7.862;2024-01-27T02:50:33;32.10;;;8.85;;
84048;SDS011;74136;51.684;7.862;2024-01-27T02:52:59;21.77;;;7.85;;
84048;SDS011;74136;51.684;7.862;2024-01-27T02:55:25;42.35;;;8.77;;
84048;SDS011;74136;51.684;7.862;2024-01-27T02:57:51;30.23;;;8.43;;
84048;SDS011;74136;51.684;7.862;2024-01-27T03:00:17;37.50;;;12.23;;
84048;SDS011;74136;51.684;7.862;2024-01-27T03:02:44;27.33;;;8.10;;
84048;SDS011;74136;51.684;7.862;2024-01-27T03:05:10;28.83;;;7.85;;
84048;SDS011;74136;51.684;7.862;2024-01-27T03:07:39;29.92;;;8.82;;
84048;SDS011;74136;51.684;7.862;2024-01-27T03:10:07;33.58;;;9.45;;
84048;SDS011;74136;51.684;7.862;2024-01-27T03:12:33;37.38;;;9.57;;
84048;SDS011;74136;51.684;7.862;2024-01-27T03:14:59;34.28;;;9.02;;
84048;SDS011;74136;51.684;7.862;2024-01-27T03:17:25;32.72;;;9.27;;
84048;SDS011;74136;51.684;7.862;2024-01-27T03:19:51;32.53;;;10.00;;
84048;SDS011;74136;51.684;7.862;2024-01-27T03:22:18;31.65;;;8.55;;
84048;SDS011;74136;51.684;7.862;2024-01-27T03:24:44;41.38;;;9.52;;
84048;SDS011;74136;51.684;7.862;2024-01-27T03:27:10;38.70;;;10.15;;
84048;SDS011;74136;51.684;7.862;2024-01-27T03:29:36;26.42;;;9.27;;
84048;SDS011;74136;51.684;7.862;2024-01-27T03:32:02;28.02;;;9.77;;
84048;SDS011;74136;51.684;7.862;2024-01-27T03:34:29;26.88;;;9.23;;
84048;SDS011;74136;51.684;7.862;2024-01-27T03:36:55;40.97;;;9.27;;
84048;SDS011;74136;51.684;7.862;2024-01-27T03:39:21;34.28;;;9.82;;
84048;SDS011;74136;51.684;7.862;2024-01-27T03:41:48;35.67;;;9.98;;
84048;SDS011;74136;51.684;7.862;2024-01-27T03:44:14;31.48;;;8.45;;
84048;SDS011;74136;51.684;7.862;2024-01-27T03:46:40;34.70;;;9.50;;
84048;SDS011;74136;51.684;7.862;2024-01-27T03:49:06;29.88;;;10.52;;
84048;SDS011;74136;51.684;7.862;2024-01-27T03:51:33;30.55;;;9.88;;
84048;SDS011;74136;51.684;7.862;2024-01-27T03:53:59;40.00;;;10.50;;
84048;SDS011;74136;51.684;7.862;2024-01-27T03:56:25;29.60;;;8.68;;
84048;SDS011;74136;51.684;7.862;2024-01-27T03:58:51;33.15;;;9.43;;
84048;SDS011;74136;51.684;7.862;2024-01-27T04:01:17;32.30;;;9.88;;
84048;SDS011;74136;51.684;7.862;2024-01-27T04:03:44;30.30;;;9.55;;
84048;SDS011;74136;51.684;7.862;2024-01-27T04:06:10;38.75;;;10.15;;
84048;SDS011;74136;51.684;7.862;2024-01-27T04:08:36;24.65;;;8.90;;
84048;SDS011;74136;51.684;7.862;2024-01-27T04:11:02;32.90;;;8.55;;
84048;SDS011;74136;51.684;7.862;2024-01-27T04:13:29;25.98;;;8.50;;
84048;SDS011;74136;51.684;7.862;2024-01-27T04:15:55;34.53;;;10.48;;
84048;SDS011;74136;51.684;7.862;2024-01-27T04:18:23;30.75;;;9.68;;
84048;SDS011;74136;51.684;7.862;2024-01-27T04:20:49;39.30;;;10.82;;
84048;SDS011;74136;51.684;7.862;2024-01-27T04:23:15;33.67;;;10.88;;
84048;SDS011;74136;51.684;7.862;2024-01-27T04:25:42;32.22;;;11.02;;
84048;SDS011;74136;51.684;7.862;2024-01-27T04:28:09;42.05;;;10.77;;
84048;SDS011;74136;51.684;7.862;2024-01-27T04:30:37;38.33;;;10.95;;
84048;SDS011;74136;51.684;7.862;2024-01-27T04:33:04;39.13;;;10.13;;
84048;SDS011;74136;51.684;7.862;2024-01-27T04:37:59;38.50;;;10.48;;
84048;SDS011;74136;51.684;7.862;2024-01-27T04:40:25;27.30;;;10.25;;
84048;SDS011;74136;51.684;7.862;2024-01-27T04:42:51;33.15;;;11.57;;
84048;SDS011;74136;51.684;7.862;2024-01-27T04:45:18;37.35;;;11.30;;
84048;SDS011;74136;51.684;7.862;2024-01-27T04:47:44;37.38;;;11.25;;
84048;SDS011;74136;51.684;7.862;2024-01-27T04:50:11;42.47;;;11.00;;
84048;SDS011;74136;51.684;7.862;2024-01-27T04:52:37;41.05;;;12.82;;
84048;SDS011;74136;51.684;7.862;2024-01-27T04:55:03;34.55;;;10.45;;
84048;SDS011;74136;51.684;7.862;2024-01-27T04:57:30;45.33;;;13.13;;
84048;SDS011;74136;51.684;7.862;2024-01-27T04:59:57;36.53;;;13.40;;
84048;SDS011;74136;51.684;7.862;2024-01-27T05:02:23;45.80;;;14.45;;
84048;SDS011;74136;51.684;7.862;2024-01-27T05:04:50;39.65;;;14.60;;
84048;SDS011;74136;51.684;7.862;2024-01-27T05:07:16;39.72;;;13.07;;
84048;SDS011;74136;51.684;7.862;2024-01-27T05:09:42;40.47;;;12.60;;
84048;SDS011;74136;51.684;7.862;2024-01-27T05:12:08;30.75;;;10.93;;
84048;SDS011;74136;51.684;7.862;2024-01-27T05:14:34;33.78;;;10.73;;
84048;SDS011;74136;51.684;7.862;2024-01-27T05:17:01;30.75;;;11.20;;
84048;SDS011;74136;51.684;7.862;2024-01-27T05:19:27;34.35;;;11.57;;
84048;SDS011;74136;51.684;7.862;2024-01-27T05:21:53;39.28;;;10.50;;
84048;SDS011;74136;51.684;7.862;2024-01-27T05:24:19;30.98;;;9.50;;
84048;SDS011;74136;51.684;7.862;2024-01-27T05:26:45;36.42;;;11.60;;
84048;SDS011;74136;51.684;7.862;2024-01-27T05:29:12;33.75;;;12.18;;
84048;SDS011;74136;51.684;7.862;2024-01-27T05:31:38;37.85;;;11.77;;
84048;SDS011;74136;51.684;7.862;2024-01-27T05:34:04;35.13;;;11.23;;
84048;SDS011;74136;51.684;7.862;2024-01-27T05:36:30;48.33;;;16.67;;
84048;SDS011;74136;51.684;7.862;2024-01-27T05:38:57;50.72;;;12.95;;
84048;SDS011;74136;51.684;7.862;2024-01-27T05:41:26;52.65;;;12.63;;
84048;SDS011;74136;51.684;7.862;2024-01-27T05:43:54;40.80;;;12.05;;
84048;SDS011;74136;51.684;7.862;2024-01-27T05:46:23;40.50;;;12.55;;
84048;SDS011;74136;51.684;7.862;2024-01-27T05:48:52;37.30;;;11.73;;
84048;SDS011;74136;51.684;7.862;2024-01-27T05:51:20;35.08;;;10.38;;
84048;SDS011;74136;51.684;7.862;2024-01-27T05:53:48;39.78;;;11.20;;
84048;SDS011;74136;51.684;7.862;2024-01-27T05:56:14;33.70;;;10.80;;
84048;SDS011;74136;51.684;7.862;2024-01-27T05:58:40;32.28;;;12.25;;
84048;SDS011;74136;51.684;7.862;2024-01-27T06:01:06;41.17;;;13.15;;
84048;SDS011;74136;51.684;7.862;2024-01-27T06:03:34;44.22;;;13.00;;
84048;SDS011;74136;51.684;7.862;2024-01-27T06:06:01;35.88;;;11.63;;
84048;SDS011;74136;51.684;7.862;2024-01-27T06:08:28;43.33;;;13.02;;
84048;SDS011;74136;51.684;7.862;2024-01-27T06:10:54;47.63;;;14.77;;
84048;SDS011;74136;51.684;7.862;2024-01-27T06:13:20;38.38;;;13.32;;
84048;SDS011;74136;51.684;7.862;2024-01-27T06:15:46;37.97;;;13.40;;
84048;SDS011;74136;51.684;7.862;2024-01-27T06:18:13;40.50;;;12.50;;
84048;SDS011;74136;51.684;7.862;2024-01-27T06:20:39;46.70;;;13.18;;
84048;SDS011;74136;51.684;7.862;2024-01-27T06:23:06;40.47;;;12.63;;
84048;SDS011;74136;51.684;7.862;2024-01-27T06:25:32;36.72;;;11.88;;
84048;SDS011;74136;51.684;7.862;2024-01-27T06:27:58;35.35;;;12.10;;
84048;SDS011;74136;51.684;7.862;2024-01-27T06:30:25;40.08;;;13.10;;
84048;SDS011;74136;51.684;7.862;2024-01-27T06:32:51;40.75;;;12.80;;
84048;SDS011;74136;51.684;7.862;2024-01-27T06:35:17;51.33;;;14.02;;
84048;SDS011;74136;51.684;7.862;2024-01-27T06:37:44;37.15;;;12.70;;
84048;SDS011;74136;51.684;7.862;2024-01-27T06:40:10;39.30;;;12.90;;
84048;SDS011;74136;51.684;7.862;2024-01-27T06:42:37;45.63;;;13.10;;
84048;SDS011;74136;51.684;7.862;2024-01-27T06:45:04;40.05;;;13.27;;
84048;SDS011;74136;51.684;7.862;2024-01-27T06:47:30;38.50;;;12.52;;
84048;SDS011;74136;51.684;7.862;2024-01-27T06:49:57;35.60;;;12.13;;
84048;SDS011;74136;51.684;7.862;2024-01-27T06:52:23;42.60;;;13.07;;
84048;SDS011;74136;51.684;7.862;2024-01-27T06:54:49;34.15;;;11.15;;
84048;SDS011;74136;51.684;7.862;2024-01-27T06:57:19;34.33;;;12.82;;
84048;SDS011;74136;51.684;7.862;2024-01-27T06:59:50;40.80;;;15.00;;
84048;SDS011;74136;51.684;7.862;2024-01-27T07:04:47;44.35;;;12.05;;
84048;SDS011;74136;51.684;7.862;2024-01-27T07:07:14;33.65;;;11.68;;
84048;SDS011;74136;51.684;7.862;2024-01-27T07:09:40;41.22;;;13.25;;
84048;SDS011;74136;51.684;7.862;2024-01-27T07:12:06;45.70;;;12.63;;
84048;SDS011;74136;51.684;7.862;2024-01-27T07:14:33;41.75;;;13.77;;
84048;SDS011;74136;51.684;7.862;2024-01-27T07:16:59;46.08;;;13.38;;
84048;SDS011;74136;51.684;7.862;2024-01-27T07:19:25;48.05;;;13.15;;
84048;SDS011;74136;51.684;7.862;2024-01-27T07:21:51;34.92;;;15.10;;
84048;SDS011;74136;51.684;7.862;2024-01-27T07:24:18;46.42;;;12.00;;
84048;SDS011;74136;51.684;7.862;2024-01-27T07:26:44;34.88;;;13.02;;
84048;SDS011;74136;51.684;7.862;2024-01-27T07:29:10;44.33;;;14.05;;
84048;SDS011;74136;51.684;7.862;2024-01-27T07:31:36;32.75;;;11.45;;
84048;SDS011;74136;51.684;7.862;2024-01-27T07:34:02;40.03;;;12.80;;
84048;SDS011;74136;51.684;7.862;2024-01-27T07:36:29;28.88;;;12.55;;
84048;SDS011;74136;51.684;7.862;2024-01-27T07:38:58;44.60;;;13.13;;
84048;SDS011;74136;51.684;7.862;2024-01-27T07:41:25;37.72;;;12.45;;
84048;SDS011;74136;51.684;7.862;2024-01-27T07:43:51;27.98;;;11.13;;
84048;SDS011;74136;51.684;7.862;2024-01-27T07:46:17;32.47;;;9.68;;
84048;SDS011;74136;51.684;7.862;2024-01-27T07:48:47;29.85;;;11.50;;
84048;SDS011;74136;51.684;7.862;2024-01-27T07:51:17;28.38;;;9.57;;
84048;SDS011;74136;51.684;7.862;2024-01-27T07:53:43;29.95;;;10.73;;
84048;SDS011;74136;51.684;7.862;2024-01-27T07:56:09;32.83;;;10.70;;
84048;SDS011;74136;51.684;7.862;2024-01-27T07:58:35;32.80;;;11.23;;
84048;SDS011;74136;51.684;7.862;2024-01-27T08:01:01;39.88;;;10.38;;
84048;SDS011;74136;51.684;7.862;2024-01-27T08:03:28;36.63;;;10.52;;
84048;SDS011;74136;51.684;7.862;2024-01-27T08:05:54;38.22;;;11.35;;
84048;SDS011;74136;51.684;7.862;2024-01-27T08:08:23;32.85;;;10.75;;
84048;SDS011;74136;51.684;7.862;2024-01-27T08:10:49;36.38;;;11.13;;
84048;SDS011;74136;51.684;7.862;2024-01-27T08:13:15;31.50;;;9.98;;
84048;SDS011;74136;51.684;7.862;2024-01-27T08:15:41;43.65;;;11.73;;
84048;SDS011;74136;51.684;7.862;2024-01-27T08:18:07;32.78;;;10.43;;
84048;SDS011;74136;51.684;7.862;2024-01-27T08:20:35;28.33;;;9.85;;
84048;SDS011;74136;51.684;7.862;2024-01-27T08:23:01;31.25;;;8.88;;
84048;SDS011;74136;51.684;7.862;2024-01-27T08:25:27;33.67;;;12.00;;
84048;SDS011;74136;51.684;7.862;2024-01-27T08:27:53;37.03;;;10.60;;
84048;SDS011;74136;51.684;7.862;2024-01-27T08:30:19;42.55;;;12.98;;
84048;SDS011;74136;51.684;7.862;2024-01-27T08:32:45;36.38;;;11.15;;
84048;SDS011;74136;51.684;7.862;2024-01-27T08:35:12;35.65;;;12.23;;
84048;SDS011;74136;51.684;7.862;2024-01-27T08:37:38;38.67;;;11.93;;
84048;SDS011;74136;51.684;7.862;2024-01-27T08:40:05;31.20;;;10.07;;
84048;SDS011;74136;51.684;7.862;2024-01-27T08:42:32;41.10;;;12.50;;
84048;SDS011;74136;51.684;7.862;2024-01-27T08:44:58;33.22;;;10.18;;
84048;SDS011;74136;51.684;7.862;2024-01-27T08:47:24;32.85;;;11.00;;
84048;SDS011;74136;51.684;7.862;2024-01-27T08:49:50;38.17;;;12.60;;
84048;SDS011;74136;51.684;7.862;2024-01-27T08:52:17;34.05;;;10.88;;
84048;SDS011;74136;51.684;7.862;2024-01-27T08:54:43;26.33;;;10.57;;
84048;SDS011;74136;51.684;7.862;2024-01-27T08:57:09;32.35;;;10.75;;
84048;SDS011;74136;51.684;7.862;2024-01-27T08:59:36;26.13;;;8.55;;
84048;SDS011;74136;51.684;7.862;2024-01-27T09:02:02;34.22;;;9.57;;
84048;SDS011;74136;51.684;7.862;2024-01-27T09:04:30;35.05;;;10.40;;
84048;SDS011;74136;51.684;7.862;2024-01-27T09:06:56;26.60;;;9.32;;
84048;SDS011;74136;51.684;7.862;2024-01-27T09:09:22;31.48;;;10.30;;
84048;SDS011;74136;51.684;7.862;2024-01-27T09:11:48;34.42;;;9.05;;
84048;SDS011;74136;51.684;7.862;2024-01-27T09:14:16;36.05;;;9.07;;
84048;SDS011;74136;51.684;7.862;2024-01-27T09:16:42;31.67;;;8.98;;
84048;SDS011;74136;51.684;7.862;2024-01-27T09:19:08;33.33;;;9.30;;
84048;SDS011;74136;51.684;7.862;2024-01-27T09:21:34;34.65;;;9.43;;
84048;SDS011;74136;51.684;7.862;2024-01-27T09:24:00;28.88;;;7.97;;
84048;SDS011;74136;51.684;7.862;2024-01-27T09:26:28;26.10;;;8.50;;
84048;SDS011;74136;51.684;7.862;2024-01-27T09:28:54;28.10;;;9.30;;
84048;SDS011;74136;51.684;7.862;2024-01-27T09:31:21;26.90;;;8.30;;
84048;SDS011;74136;51.684;7.862;2024-01-27T09:33:49;33.83;;;8.85;;
84048;SDS011;74136;51.684;7.862;2024-01-27T09:38:43;25.67;;;7.85;;
84048;SDS011;74136;51.684;7.862;2024-01-27T09:41:10;20.95;;;6.82;;
84048;SDS011;74136;51.684;7.862;2024-01-27T09:43:38;26.08;;;7.90;;
84048;SDS011;74136;51.684;7.862;2024-01-27T09:46:16;29.45;;;7.80;;
84048;SDS011;74136;51.684;7.862;2024-01-27T09:48:43;21.33;;;7.57;;
84048;SDS011;74136;51.684;7.862;2024-01-27T09:51:10;27.85;;;6.78;;
84048;SDS011;74136;51.684;7.862;2024-01-27T09:53:37;29.65;;;7.32;;
84048;SDS011;74136;51.684;7.862;2024-01-27T09:56:03;21.08;;;7.53;;
84048;SDS011;74136;51.684;7.862;2024-01-27T09:58:30;26.27;;;7.03;;
84048;SDS011;74136;51.684;7.862;2024-01-27T10:00:57;18.40;;;7.03;;
84048;SDS011;74136;51.684;7.862;2024-01-27T10:03:25;19.50;;;6.18;;
84048;SDS011;74136;51.684;7.862;2024-01-27T10:05:53;24.70;;;8.80;;
84048;SDS011;74136;51.684;7.862;2024-01-27T10:08:21;20.48;;;5.40;;
84048;SDS011;74136;51.684;7.862;2024-01-27T10:10:53;28.92;;;6.28;;
84048;SDS011;74136;51.684;7.862;2024-01-27T10:13:21;22.77;;;6.88;;
84048;SDS011;74136;51.684;7.862;2024-01-27T10:16:04;22.13;;;6.70;;
84048;SDS011;74136;51.684;7.862;2024-01-27T10:18:31;25.30;;;6.03;;
84048;SDS011;74136;51.684;7.862;2024-01-27T10:20:58;31.83;;;7.25;;
84048;SDS011;74136;51.684;7.862;2024-01-27T10:23:25;28.05;;;7.03;;
84048;SDS011;74136;51.684;7.862;2024-01-27T10:25:51;26.25;;;6.07;;
84048;SDS011;74136;51.684;7.862;2024-01-27T10:28:19;18.83;;;5.40;;
84048;SDS011;74136;51.684;7.862;2024-01-27T10:30:45;23.80;;;6.35;;
84048;SDS011;74136;51.684;7.862;2024-01-27T10:33:14;21.65;;;6.50;;
84048;SDS011;74136;51.684;7.862;2024-01-27T10:35:43;23.70;;;5.65;;
84048;SDS011;74136;51.684;7.862;2024-01-27T10:38:10;22.48;;;5.63;;
84048;SDS011;74136;51.684;7.862;2024-01-27T10:40:36;28.23;;;6.55;;
84048;SDS011;74136;51.684;7.862;2024-01-27T10:43:06;22.80;;;6.13;;
84048;SDS011;74136;51.684;7.862;2024-01-27T10:45:37;21.38;;;5.82;;
84048;SDS011;74136;51.684;7.862;2024-01-27T10:48:03;20.20;;;5.15;;
84048;SDS011;74136;51.684;7.862;2024-01-27T10:50:35;30.02;;;5.45;;
84048;SDS011;74136;51.684;7.862;2024-01-27T10:53:04;19.88;;;4.97;;
84048;SDS011;74136;51.684;7.862;2024-01-27T10:55:35;20.48;;;6.05;;
84048;SDS011;74136;51.684;7.862;2024-01-27T10:58:03;20.42;;;6.25;;
84048;SDS011;74136;51.684;7.862;2024-01-27T11:00:29;24.48;;;5.88;;
84048;SDS011;74136;51.684;7.862;2024-01-27T11:02:59;19.58;;;4.97;;
84048;SDS011;74136;51.684;7.862;2024-01-27T11:05:28;21.42;;;4.50;;
84048;SDS011;74136;51.684;7.862;2024-01-27T11:07:58;21.65;;;6.25;;
84048;SDS011;74136;51.684;7.862;2024-01-27T11:10:25;23.30;;;6.45;;
84048;SDS011;74136;51.684;7.862;2024-01-27T11:12:52;18.30;;;5.13;;
84048;SDS011;74136;51.684;7.862;2024-01-27T11:17:47;24.30;;;5.55;;
84048;SDS011;74136;51.684;7.862;2024-01-27T11:20:14;19.77;;;5.25;;
84048;SDS011;74136;51.684;7.862;2024-01-27T11:22:42;21.70;;;4.65;;
84048;SDS011;74136;51.684;7.862;2024-01-27T11:27:39;21.95;;;5.07;;
84048;SDS011;74136;51.684;7.862;2024-01-27T11:30:08;20.45;;;4.50;;
84048;SDS011;74136;51.684;7.862;2024-01-27T11:32:51;25.35;;;5.05;;
84048;SDS011;74136;51.684;7.862;2024-01-27T11:35:18;19.02;;;4.45;;
84048;SDS011;74136;51.684;7.862;2024-01-27T11:37:44;19.60;;;4.45;;
84048;SDS011;74136;51.684;7.862;2024-01-27T11:40:11;18.70;;;3.70;;
84048;SDS011;74136;51.684;7.862;2024-01-27T11:42:38;19.75;;;5.13;;
84048;SDS011;74136;51.684;7.862;2024-01-27T11:45:04;14.18;;;4.03;;
84048;SDS011;74136;51.684;7.862;2024-01-27T11:47:30;21.67;;;4.82;;
84048;SDS011;74136;51.684;7.862;2024-01-27T11:49:57;19.35;;;4.22;;
84048;SDS011;74136;51.684;7.862;2024-01-27T11:52:24;25.95;;;4.22;;
84048;SDS011;74136;51.684;7.862;2024-01-27T11:54:57;17.98;;;3.67;;
84048;SDS011;74136;51.684;7.862;2024-01-27T11:57:24;22.00;;;4.43;;
84048;SDS011;74136;51.684;7.862;2024-01-27T11:59:52;20.48;;;4.55;;
84048;SDS011;74136;51.684;7.862;2024-01-27T12:02:19;15.65;;;3.42;;
84048;SDS011;74136;51.684;7.862;2024-01-27T12:04:46;23.77;;;4.97;;
84048;SDS011;74136;51.684;7.862;2024-01-27T12:07:14;21.65;;;5.05;;
84048;SDS011;74136;51.684;7.862;2024-01-27T12:09:40;15.98;;;3.67;;
84048;SDS011;74136;51.684;7.862;2024-01-27T12:12:07;20.33;;;4.22;;
84048;SDS011;74136;51.684;7.862;2024-01-27T12:14:41;26.17;;;4.60;;
84048;SDS011;74136;51.684;7.862;2024-01-27T12:17:10;12.50;;;2.70;;
84048;SDS011;74136;51.684;7.862;2024-01-27T12:19:37;22.95;;;4.07;;
84048;SDS011;74136;51.684;7.862;2024-01-27T12:22:04;14.93;;;3.00;;
84048;SDS011;74136;51.684;7.862;2024-01-27T12:24:31;16.45;;;2.95;;
84048;SDS011;74136;51.684;7.862;2024-01-27T12:27:00;18.50;;;2.95;;
84048;SDS011;74136;51.684;7.862;2024-01-27T12:29:26;15.90;;;3.40;;
84048;SDS011;74136;51.684;7.862;2024-01-27T12:31:54;10.85;;;2.10;;
84048;SDS011;74136;51.684;7.862;2024-01-27T12:34:20;17.02;;;2.65;;
84048;SDS011;74136;51.684;7.862;2024-01-27T12:36:47;9.90;;;2.30;;
84048;SDS011;74136;51.684;7.862;2024-01-27T12:39:13;14.95;;;2.53;;
84048;SDS011;74136;51.684;7.862;2024-01-27T12:41:39;18.75;;;3.10;;
84048;SDS011;74136;51.684;7.862;2024-01-27T12:44:06;14.32;;;2.50;;
84048;SDS011;74136;51.684;7.862;2024-01-27T12:46:32;10.93;;;2.35;;
84048;SDS011;74136;51.684;7.862;2024-01-27T12:48:58;16.25;;;2.90;;
84048;SDS011;74136;51.684;7.862;2024-01-27T12:51:24;15.57;;;2.10;;
84048;SDS011;74136;51.684;7.862;2024-01-27T12:53:51;13.93;;;2.55;;
84048;SDS011;74136;51.684;7.862;2024-01-27T12:56:17;19.27;;;2.83;;
84048;SDS011;74136;51.684;7.862;2024-01-27T12:58:43;17.00;;;2.90;;
84048;SDS011;74136;51.684;7.862;2024-01-27T13:01:10;15.55;;;2.72;;
84048;SDS011;74136;51.684;7.862;2024-01-27T13:03:37;19.85;;;2.65;;
84048;SDS011;74136;51.684;7.862;2024-01-27T13:06:03;12.55;;;2.75;;
84048;SDS011;74136;51.684;7.862;2024-01-27T13:08:30;10.50;;;2.13;;
84048;SDS011;74136;51.684;7.862;2024-01-27T13:10:56;23.17;;;3.63;;
84048;SDS011;74136;51.684;7.862;2024-01-27T13:13:23;17.42;;;2.25;;
84048;SDS011;74136;51.684;7.862;2024-01-27T13:15:49;13.52;;;2.88;;
84048;SDS011;74136;51.684;7.862;2024-01-27T13:18:15;15.73;;;2.15;;
84048;SDS011;74136;51.684;7.862;2024-01-27T13:20:41;14.75;;;2.47;;
84048;SDS011;74136;51.684;7.862;2024-01-27T13:23:08;16.67;;;3.38;;
84048;SDS011;74136;51.684;7.862;2024-01-27T13:25:34;12.65;;;2.50;;
84048;SDS011;74136;51.684;7.862;2024-01-27T13:28:00;12.93;;;2.53;;
84048;SDS011;74136;51.684;7.862;2024-01-27T13:30:26;16.90;;;2.42;;
84048;SDS011;74136;51.684;7.862;2024-01-27T13:32:54;18.05;;;2.55;;
84048;SDS011;74136;51.684;7.862;2024-01-27T13:35:21;14.70;;;2.63;;
84048;SDS011;74136;51.684;7.862;2024-01-27T13:37:47;19.55;;;3.13;;
84048;SDS011;74136;51.684;7.862;2024-01-27T13:40:14;14.00;;;2.15;;
84048;SDS011;74136;51.684;7.862;2024-01-27T13:42:40;18.85;;;2.30;;
84048;SDS011;74136;51.684;7.862;2024-01-27T13:45:07;26.42;;;2.92;;
84048;SDS011;74136;51.684;7.862;2024-01-27T13:47:34;15.85;;;2.50;;
84048;SDS011;74136;51.684;7.862;2024-01-27T13:50:01;14.00;;;2.35;;
84048;SDS011;74136;51.684;7.862;2024-01-27T13:52:27;15.68;;;2.83;;
84048;SDS011;74136;51.684;7.862;2024-01-27T13:54:55;14.95;;;2.25;;
84048;SDS011;74136;51.684;7.862;2024-01-27T13:57:21;15.38;;;2.42;;
84048;SDS011;74136;51.684;7.862;2024-01-27T13:59:48;14.23;;;2.40;;
84048;SDS011;74136;51.684;7.862;2024-01-27T14:02:14;15.48;;;2.45;;
84048;SDS011;74136;51.684;7.862;2024-01-27T14:04:41;11.50;;;3.03;;
84048;SDS011;74136;51.684;7.862;2024-01-27T14:07:07;16.65;;;2.10;;
84048;SDS011;74136;51.684;7.862;2024-01-27T14:09:35;12.65;;;2.72;;
84048;SDS011;74136;51.684;7.862;2024-01-27T14:12:02;12.60;;;2.42;;
84048;SDS011;74136;51.684;7.862;2024-01-27T14:14:28;14.05;;;2.85;;
84048;SDS011;74136;51.684;7.862;2024-01-27T14:16:54;16.45;;;2.13;;
84048;SDS011;74136;51.684;7.862;2024-01-27T14:19:21;13.77;;;2.97;;
84048;SDS011;74136;51.684;7.862;2024-01-27T14:21:47;14.25;;;2.83;;
84048;SDS011;74136;51.684;7.862;2024-01-27T14:24:13;12.32;;;1.90;;
84048;SDS011;74136;51.684;7.862;2024-01-27T14:26:39;14.00;;;1.98;;
84048;SDS011;74136;51.684;7.862;2024-01-27T14:29:06;18.20;;;2.60;;
84048;SDS011;74136;51.684;7.862;2024-01-27T14:31:32;11.93;;;2.53;;
84048;SDS011;74136;51.684;7.862;2024-01-27T14:33:59;10.50;;;2.13;;
84048;SDS011;74136;51.684;7.862;2024-01-27T14:36:25;11.73;;;2.78;;
84048;SDS011;74136;51.684;7.862;2024-01-27T14:38:51;17.30;;;2.92;;
84048;SDS011;74136;51.684;7.862;2024-01-27T14:41:18;20.95;;;2.70;;